sensor_id;sensor_type;location;lat;lon;timestamp;P1;durP1;ratioP1;P2;durP2;ratioP2
57441;SDS011;43284;47.042;15.498;2024-01-25T00:00:56;3.50;;;1.42;;
57441;SDS011;43284;47.042;15.498;2024-01-25T00:10:05;3.63;;;1.55;;
57441;SDS011;43284;47.042;15.498;2024-01-25T00:12:32;2.35;;;1.20;;
57441;SDS011;43284;47.042;15.498;2024-01-25T00:14:57;2.08;;;1.15;;
57441;SDS011;43284;47.042;15.498;2024-01-25T00:17:23;2.03;;;1.20;;
57441;SDS011;43284;47.042;15.498;2024-01-25T00:19:49;3.53;;;1.20;;
57441;SDS011;43284;47.042;15.498;2024-01-25T00:22:14;1.70;;;0.57;;
57441;SDS011;43284;47.042;15.498;2024-01-25T00:24:40;3.85;;;0.70;;
57441;SDS011;43284;47.042;15.498;2024-01-25T00:27:06;0.95;;;0.60;;
57441;SDS011;43284;47.042;15.498;2024-01-25T00:29:31;0.73;;;0.50;;
57441;SDS011;43284;47.042;15.498;2024-01-25T00:31:59;1.05;;;0.40;;
57441;SDS011;43284;47.042;15.498;2024-01-25T00:34:24;4.07;;;0.47;;
57441;SDS011;43284;47.042;15.498;2024-01-25T00:36:50;4.18;;;0.60;;
57441;SDS011;43284;47.042;15.498;2024-01-25T00:39:16;3.47;;;0.70;;
57441;SDS011;43284;47.042;15.498;2024-01-25T00:41:42;1.90;;;0.60;;
57441;SDS011;43284;47.042;15.498;2024-01-25T00:44:09;4.82;;;0.65;;
57441;SDS011;43284;47.042;15.498;2024-01-25T00:46:35;3.38;;;0.50;;
57441;SDS011;43284;47.042;15.498;2024-01-25T00:49:01;1.80;;;0.22;;
57441;SDS011;43284;47.042;15.498;2024-01-25T00:51:26;2.88;;;0.52;;
57441;SDS011;43284;47.042;15.498;2024-01-25T00:53:52;1.50;;;0.43;;
57441;SDS011;43284;47.042;15.498;2024-01-25T00:56:18;1.92;;;0.73;;
57441;SDS011;43284;47.042;15.498;2024-01-25T00:58:44;1.75;;;0.40;;
57441;SDS011;43284;47.042;15.498;2024-01-25T01:01:10;1.10;;;0.35;;
57441;SDS011;43284;47.042;15.498;2024-01-25T01:03:36;0.65;;;0.50;;
57441;SDS011;43284;47.042;15.498;2024-01-25T01:06:02;0.60;;;0.35;;
57441;SDS011;43284;47.042;15.498;2024-01-25T01:08:30;3.33;;;0.47;;
57441;SDS011;43284;47.042;15.498;2024-01-25T01:10:56;1.27;;;0.40;;
57441;SDS011;43284;47.042;15.498;2024-01-25T01:13:22;1.17;;;0.32;;
57441;SDS011;43284;47.042;15.498;2024-01-25T01:15:47;1.35;;;0.40;;
57441;SDS011;43284;47.042;15.498;2024-01-25T01:18:13;3.85;;;0.70;;
57441;SDS011;43284;47.042;15.498;2024-01-25T01:20:38;1.95;;;0.43;;
57441;SDS011;43284;47.042;15.498;2024-01-25T01:23:04;3.70;;;0.75;;
57441;SDS011;43284;47.042;15.498;2024-01-25T01:25:29;1.67;;;0.93;;
57441;SDS011;43284;47.042;15.498;2024-01-25T01:27:55;0.30;;;0.20;;
57441;SDS011;43284;47.042;15.498;2024-01-25T01:30:21;2.97;;;0.47;;
57441;SDS011;43284;47.042;15.498;2024-01-25T01:32:47;0.80;;;0.40;;
57441;SDS011;43284;47.042;15.498;2024-01-25T01:35:12;2.40;;;0.52;;
57441;SDS011;43284;47.042;15.498;2024-01-25T01:37:38;2.53;;;0.55;;
57441;SDS011;43284;47.042;15.498;2024-01-25T01:40:03;2.90;;;0.60;;
57441;SDS011;43284;47.042;15.498;2024-01-25T01:42:30;1.50;;;0.45;;
57441;SDS011;43284;47.042;15.498;2024-01-25T01:44:56;2.30;;;0.80;;
57441;SDS011;43284;47.042;15.498;2024-01-25T01:47:22;1.90;;;0.50;;
57441;SDS011;43284;47.042;15.498;2024-01-25T01:49:47;0.38;;;0.20;;
57441;SDS011;43284;47.042;15.498;2024-01-25T01:52:13;4.47;;;0.50;;
57441;SDS011;43284;47.042;15.498;2024-01-25T01:54:39;1.38;;;0.50;;
57441;SDS011;43284;47.042;15.498;2024-01-25T01:57:06;2.30;;;0.40;;
57441;SDS011;43284;47.042;15.498;2024-01-25T01:59:33;2.97;;;0.75;;
57441;SDS011;43284;47.042;15.498;2024-01-25T02:01:58;3.92;;;0.60;;
57441;SDS011;43284;47.042;15.498;2024-01-25T02:04:24;1.40;;;0.60;;
57441;SDS011;43284;47.042;15.498;2024-01-25T02:06:49;1.40;;;0.52;;
57441;SDS011;43284;47.042;15.498;2024-01-25T02:09:15;2.38;;;0.68;;
57441;SDS011;43284;47.042;15.498;2024-01-25T02:11:41;1.92;;;0.50;;
57441;SDS011;43284;47.042;15.498;2024-01-25T02:14:06;0.32;;;0.30;;
57441;SDS011;43284;47.042;15.498;2024-01-25T02:16:35;0.43;;;0.38;;
57441;SDS011;43284;47.042;15.498;2024-01-25T02:19:01;2.63;;;0.75;;
57441;SDS011;43284;47.042;15.498;2024-01-25T02:21:27;0.98;;;0.35;;
57441;SDS011;43284;47.042;15.498;2024-01-25T02:23:52;1.27;;;0.45;;
57441;SDS011;43284;47.042;15.498;2024-01-25T02:26:18;2.92;;;0.50;;
57441;SDS011;43284;47.042;15.498;2024-01-25T02:28:43;5.07;;;0.60;;
57441;SDS011;43284;47.042;15.498;2024-01-25T02:31:09;1.65;;;0.45;;
57441;SDS011;43284;47.042;15.498;2024-01-25T02:33:34;3.70;;;0.40;;
57441;SDS011;43284;47.042;15.498;2024-01-25T02:36:00;1.85;;;0.38;;
57441;SDS011;43284;47.042;15.498;2024-01-25T02:38:25;3.78;;;0.77;;
57441;SDS011;43284;47.042;15.498;2024-01-25T02:40:51;1.17;;;0.60;;
57441;SDS011;43284;47.042;15.498;2024-01-25T02:43:18;6.13;;;0.80;;
57441;SDS011;43284;47.042;15.498;2024-01-25T02:45:44;4.82;;;0.70;;
57441;SDS011;43284;47.042;15.498;2024-01-25T02:48:10;3.22;;;0.50;;
57441;SDS011;43284;47.042;15.498;2024-01-25T02:50:36;1.90;;;0.50;;
57441;SDS011;43284;47.042;15.498;2024-01-25T02:53:01;3.50;;;0.57;;
57441;SDS011;43284;47.042;15.498;2024-01-25T02:55:27;2.40;;;0.60;;
57441;SDS011;43284;47.042;15.498;2024-01-25T02:57:53;6.72;;;0.50;;
57441;SDS011;43284;47.042;15.498;2024-01-25T03:00:18;2.60;;;0.70;;
57441;SDS011;43284;47.042;15.498;2024-01-25T03:02:44;3.10;;;1.30;;
57441;SDS011;43284;47.042;15.498;2024-01-25T03:05:09;1.90;;;1.10;;
57441;SDS011;43284;47.042;15.498;2024-01-25T03:07:35;8.07;;;1.48;;
57441;SDS011;43284;47.042;15.498;2024-01-25T03:10:00;4.18;;;0.90;;
57441;SDS011;43284;47.042;15.498;2024-01-25T03:12:26;2.67;;;1.00;;
57441;SDS011;43284;47.042;15.498;2024-01-25T03:14:52;2.78;;;1.15;;
57441;SDS011;43284;47.042;15.498;2024-01-25T03:17:17;5.15;;;1.02;;
57441;SDS011;43284;47.042;15.498;2024-01-25T03:19:43;2.50;;;0.73;;
57441;SDS011;43284;47.042;15.498;2024-01-25T03:22:11;2.70;;;0.70;;
57441;SDS011;43284;47.042;15.498;2024-01-25T03:24:37;1.40;;;0.68;;
57441;SDS011;43284;47.042;15.498;2024-01-25T03:27:04;3.00;;;0.50;;
57441;SDS011;43284;47.042;15.498;2024-01-25T03:29:29;1.05;;;0.40;;
57441;SDS011;43284;47.042;15.498;2024-01-25T03:31:55;1.27;;;0.55;;
57441;SDS011;43284;47.042;15.498;2024-01-25T03:34:20;1.70;;;0.30;;
57441;SDS011;43284;47.042;15.498;2024-01-25T03:36:46;2.72;;;0.32;;
57441;SDS011;43284;47.042;15.498;2024-01-25T03:39:11;2.20;;;0.30;;
57441;SDS011;43284;47.042;15.498;2024-01-25T03:41:37;0.73;;;0.35;;
57441;SDS011;43284;47.042;15.498;2024-01-25T03:44:03;2.13;;;0.52;;
57441;SDS011;43284;47.042;15.498;2024-01-25T03:46:28;0.85;;;0.35;;
57441;SDS011;43284;47.042;15.498;2024-01-25T03:48:54;2.28;;;0.40;;
57441;SDS011;43284;47.042;15.498;2024-01-25T03:51:19;1.77;;;0.30;;
57441;SDS011;43284;47.042;15.498;2024-01-25T03:53:45;1.58;;;0.50;;
57441;SDS011;43284;47.042;15.498;2024-01-25T03:56:13;0.80;;;0.50;;
57441;SDS011;43284;47.042;15.498;2024-01-25T03:58:39;3.33;;;0.60;;
57441;SDS011;43284;47.042;15.498;2024-01-25T04:01:04;0.30;;;0.30;;
57441;SDS011;43284;47.042;15.498;2024-01-25T04:03:30;3.05;;;0.50;;
57441;SDS011;43284;47.042;15.498;2024-01-25T04:05:56;1.60;;;0.32;;
57441;SDS011;43284;47.042;15.498;2024-01-25T04:08:21;3.40;;;0.60;;
57441;SDS011;43284;47.042;15.498;2024-01-25T04:10:47;3.50;;;0.50;;
57441;SDS011;43284;47.042;15.498;2024-01-25T04:13:12;5.22;;;0.65;;
57441;SDS011;43284;47.042;15.498;2024-01-25T04:15:38;3.67;;;0.40;;
57441;SDS011;43284;47.042;15.498;2024-01-25T04:18:03;2.58;;;0.55;;
57441;SDS011;43284;47.042;15.498;2024-01-25T04:20:29;1.02;;;0.50;;
57441;SDS011;43284;47.042;15.498;2024-01-25T04:22:56;0.75;;;0.30;;
57441;SDS011;43284;47.042;15.498;2024-01-25T04:25:22;1.05;;;0.63;;
57441;SDS011;43284;47.042;15.498;2024-01-25T04:27:47;5.15;;;0.85;;
57441;SDS011;43284;47.042;15.498;2024-01-25T04:30:13;0.73;;;0.35;;
57441;SDS011;43284;47.042;15.498;2024-01-25T04:32:39;2.30;;;0.55;;
57441;SDS011;43284;47.042;15.498;2024-01-25T04:35:05;3.35;;;1.00;;
57441;SDS011;43284;47.042;15.498;2024-01-25T04:37:31;3.70;;;0.57;;
57441;SDS011;43284;47.042;15.498;2024-01-25T04:39:56;2.00;;;0.45;;
57441;SDS011;43284;47.042;15.498;2024-01-25T04:42:22;0.75;;;0.40;;
57441;SDS011;43284;47.042;15.498;2024-01-25T04:44:47;1.30;;;0.50;;
57441;SDS011;43284;47.042;15.498;2024-01-25T04:47:13;1.35;;;0.80;;
57441;SDS011;43284;47.042;15.498;2024-01-25T04:49:39;2.20;;;0.80;;
57441;SDS011;43284;47.042;15.498;2024-01-25T04:52:05;6.03;;;1.10;;
57441;SDS011;43284;47.042;15.498;2024-01-25T04:54:31;0.90;;;0.65;;
57441;SDS011;43284;47.042;15.498;2024-01-25T04:56:57;0.68;;;0.30;;
57441;SDS011;43284;47.042;15.498;2024-01-25T04:59:23;4.13;;;0.45;;
57441;SDS011;43284;47.042;15.498;2024-01-25T05:01:48;1.08;;;0.30;;
57441;SDS011;43284;47.042;15.498;2024-01-25T05:04:15;3.33;;;1.10;;
57441;SDS011;43284;47.042;15.498;2024-01-25T05:06:41;1.65;;;0.85;;
57441;SDS011;43284;47.042;15.498;2024-01-25T05:09:06;3.38;;;1.00;;
57441;SDS011;43284;47.042;15.498;2024-01-25T05:11:37;1.55;;;0.57;;
57441;SDS011;43284;47.042;15.498;2024-01-25T05:14:03;5.55;;;0.57;;
57441;SDS011;43284;47.042;15.498;2024-01-25T05:16:29;1.20;;;0.45;;
57441;SDS011;43284;47.042;15.498;2024-01-25T05:18:56;2.58;;;0.60;;
57441;SDS011;43284;47.042;15.498;2024-01-25T05:21:21;0.70;;;0.40;;
57441;SDS011;43284;47.042;15.498;2024-01-25T05:23:47;1.23;;;0.50;;
57441;SDS011;43284;47.042;15.498;2024-01-25T05:26:12;0.85;;;0.32;;
57441;SDS011;43284;47.042;15.498;2024-01-25T05:28:38;1.50;;;0.40;;
57441;SDS011;43284;47.042;15.498;2024-01-25T05:31:03;3.35;;;0.80;;
57441;SDS011;43284;47.042;15.498;2024-01-25T05:33:29;3.00;;;1.13;;
57441;SDS011;43284;47.042;15.498;2024-01-25T05:35:54;1.13;;;0.55;;
57441;SDS011;43284;47.042;15.498;2024-01-25T05:38:20;4.32;;;0.75;;
57441;SDS011;43284;47.042;15.498;2024-01-25T05:40:46;4.32;;;0.52;;
57441;SDS011;43284;47.042;15.498;2024-01-25T05:43:11;2.70;;;0.60;;
57441;SDS011;43284;47.042;15.498;2024-01-25T05:45:37;2.35;;;0.60;;
57441;SDS011;43284;47.042;15.498;2024-01-25T05:48:02;0.82;;;0.47;;
57441;SDS011;43284;47.042;15.498;2024-01-25T05:50:28;2.30;;;0.40;;
57441;SDS011;43284;47.042;15.498;2024-01-25T05:52:53;1.08;;;0.50;;
57441;SDS011;43284;47.042;15.498;2024-01-25T05:55:19;1.45;;;0.70;;
57441;SDS011;43284;47.042;15.498;2024-01-25T05:57:44;4.68;;;0.70;;
57441;SDS011;43284;47.042;15.498;2024-01-25T06:00:11;2.65;;;0.38;;
57441;SDS011;43284;47.042;15.498;2024-01-25T06:02:39;3.13;;;0.65;;
57441;SDS011;43284;47.042;15.498;2024-01-25T06:05:05;1.48;;;0.85;;
57441;SDS011;43284;47.042;15.498;2024-01-25T06:07:30;4.53;;;0.50;;
57441;SDS011;43284;47.042;15.498;2024-01-25T06:09:56;3.67;;;0.68;;
57441;SDS011;43284;47.042;15.498;2024-01-25T06:12:21;2.58;;;0.90;;
57441;SDS011;43284;47.042;15.498;2024-01-25T06:14:47;7.50;;;0.80;;
57441;SDS011;43284;47.042;15.498;2024-01-25T06:17:12;1.17;;;0.55;;
57441;SDS011;43284;47.042;15.498;2024-01-25T06:19:38;2.22;;;0.47;;
57441;SDS011;43284;47.042;15.498;2024-01-25T06:22:03;2.17;;;0.50;;
57441;SDS011;43284;47.042;15.498;2024-01-25T06:24:29;3.08;;;0.57;;
57441;SDS011;43284;47.042;15.498;2024-01-25T06:26:55;1.75;;;0.45;;
57441;SDS011;43284;47.042;15.498;2024-01-25T06:29:20;1.02;;;0.60;;
57441;SDS011;43284;47.042;15.498;2024-01-25T06:31:46;2.13;;;0.65;;
57441;SDS011;43284;47.042;15.498;2024-01-25T06:34:11;2.70;;;0.73;;
57441;SDS011;43284;47.042;15.498;2024-01-25T06:36:37;1.85;;;0.80;;
57441;SDS011;43284;47.042;15.498;2024-01-25T06:39:04;3.08;;;0.98;;
57441;SDS011;43284;47.042;15.498;2024-01-25T06:41:30;2.85;;;1.02;;
57441;SDS011;43284;47.042;15.498;2024-01-25T06:43:56;2.10;;;0.80;;
57441;SDS011;43284;47.042;15.498;2024-01-25T06:46:21;1.67;;;0.77;;
57441;SDS011;43284;47.042;15.498;2024-01-25T06:48:47;3.42;;;0.75;;
57441;SDS011;43284;47.042;15.498;2024-01-25T06:51:12;1.52;;;0.77;;
57441;SDS011;43284;47.042;15.498;2024-01-25T06:53:39;1.63;;;1.08;;
57441;SDS011;43284;47.042;15.498;2024-01-25T06:56:05;1.55;;;0.70;;
57441;SDS011;43284;47.042;15.498;2024-01-25T06:58:31;2.38;;;0.52;;
57441;SDS011;43284;47.042;15.498;2024-01-25T07:00:57;1.60;;;0.68;;
57441;SDS011;43284;47.042;15.498;2024-01-25T07:03:22;0.80;;;0.50;;
57441;SDS011;43284;47.042;15.498;2024-01-25T07:05:48;1.30;;;0.47;;
57441;SDS011;43284;47.042;15.498;2024-01-25T07:08:13;1.17;;;0.30;;
57441;SDS011;43284;47.042;15.498;2024-01-25T07:10:41;1.17;;;0.30;;
57441;SDS011;43284;47.042;15.498;2024-01-25T07:13:07;0.95;;;0.50;;
57441;SDS011;43284;47.042;15.498;2024-01-25T07:15:32;1.60;;;0.40;;
57441;SDS011;43284;47.042;15.498;2024-01-25T07:17:58;1.65;;;0.40;;
57441;SDS011;43284;47.042;15.498;2024-01-25T07:20:23;0.95;;;0.52;;
57441;SDS011;43284;47.042;15.498;2024-01-25T07:22:49;0.73;;;0.30;;
57441;SDS011;43284;47.042;15.498;2024-01-25T07:25:14;0.50;;;0.30;;
57441;SDS011;43284;47.042;15.498;2024-01-25T07:27:43;1.23;;;0.40;;
57441;SDS011;43284;47.042;15.498;2024-01-25T07:30:10;2.35;;;0.60;;
57441;SDS011;43284;47.042;15.498;2024-01-25T07:32:37;3.10;;;0.52;;
57441;SDS011;43284;47.042;15.498;2024-01-25T07:35:04;0.90;;;0.65;;
57441;SDS011;43284;47.042;15.498;2024-01-25T07:37:30;1.13;;;0.40;;
57441;SDS011;43284;47.042;15.498;2024-01-25T07:39:55;0.73;;;0.55;;
57441;SDS011;43284;47.042;15.498;2024-01-25T07:42:21;2.55;;;1.00;;
57441;SDS011;43284;47.042;15.498;2024-01-25T07:44:46;4.47;;;0.82;;
57441;SDS011;43284;47.042;15.498;2024-01-25T07:47:12;1.25;;;0.70;;
57441;SDS011;43284;47.042;15.498;2024-01-25T07:49:39;0.80;;;0.60;;
57441;SDS011;43284;47.042;15.498;2024-01-25T07:52:05;1.35;;;0.55;;
57441;SDS011;43284;47.042;15.498;2024-01-25T07:54:31;0.43;;;0.30;;
57441;SDS011;43284;47.042;15.498;2024-01-25T07:56:56;0.90;;;0.50;;
57441;SDS011;43284;47.042;15.498;2024-01-25T07:59:23;1.50;;;0.60;;
57441;SDS011;43284;47.042;15.498;2024-01-25T08:01:49;0.30;;;0.30;;
57441;SDS011;43284;47.042;15.498;2024-01-25T08:04:15;0.65;;;0.40;;
57441;SDS011;43284;47.042;15.498;2024-01-25T08:06:40;0.25;;;0.20;;
57441;SDS011;43284;47.042;15.498;2024-01-25T08:09:05;0.10;;;0.10;;
57441;SDS011;43284;47.042;15.498;2024-01-25T08:11:32;0.20;;;0.17;;
57441;SDS011;43284;47.042;15.498;2024-01-25T08:13:58;0.20;;;0.20;;
57441;SDS011;43284;47.042;15.498;2024-01-25T08:16:25;0.75;;;0.52;;
57441;SDS011;43284;47.042;15.498;2024-01-25T08:18:51;0.32;;;0.10;;
57441;SDS011;43284;47.042;15.498;2024-01-25T08:21:17;1.42;;;0.17;;
57441;SDS011;43284;47.042;15.498;2024-01-25T08:23:42;1.15;;;0.30;;
57441;SDS011;43284;47.042;15.498;2024-01-25T08:26:08;0.15;;;0.15;;
57441;SDS011;43284;47.042;15.498;2024-01-25T08:28:41;0.52;;;0.28;;
57441;SDS011;43284;47.042;15.498;2024-01-25T08:31:10;2.22;;;0.30;;
57441;SDS011;43284;47.042;15.498;2024-01-25T08:33:36;0.45;;;0.30;;
57441;SDS011;43284;47.042;15.498;2024-01-25T08:36:02;2.92;;;0.20;;
57441;SDS011;43284;47.042;15.498;2024-01-25T08:38:28;0.32;;;0.20;;
57441;SDS011;43284;47.042;15.498;2024-01-25T08:40:53;0.17;;;0.17;;
57441;SDS011;43284;47.042;15.498;2024-01-25T08:43:19;2.10;;;0.20;;
57441;SDS011;43284;47.042;15.498;2024-01-25T08:45:45;0.80;;;0.35;;
57441;SDS011;43284;47.042;15.498;2024-01-25T08:48:10;0.13;;;0.13;;
57441;SDS011;43284;47.042;15.498;2024-01-25T08:50:38;1.20;;;0.30;;
57441;SDS011;43284;47.042;15.498;2024-01-25T08:53:04;0.00;;;0.00;;
57441;SDS011;43284;47.042;15.498;2024-01-25T08:55:30;0.28;;;0.13;;
57441;SDS011;43284;47.042;15.498;2024-01-25T08:57:56;0.10;;;0.08;;
57441;SDS011;43284;47.042;15.498;2024-01-25T09:00:21;0.35;;;0.15;;
57441;SDS011;43284;47.042;15.498;2024-01-25T09:02:47;0.25;;;0.13;;
57441;SDS011;43284;47.042;15.498;2024-01-25T09:05:12;0.08;;;0.08;;
57441;SDS011;43284;47.042;15.498;2024-01-25T09:07:38;0.90;;;0.20;;
57441;SDS011;43284;47.042;15.498;2024-01-25T09:10:03;0.40;;;0.20;;
57441;SDS011;43284;47.042;15.498;2024-01-25T09:12:29;0.10;;;0.10;;
57441;SDS011;43284;47.042;15.498;2024-01-25T09:14:55;0.47;;;0.20;;
57441;SDS011;43284;47.042;15.498;2024-01-25T09:17:21;0.73;;;0.20;;
57441;SDS011;43284;47.042;15.498;2024-01-25T09:19:50;2.75;;;0.30;;
57441;SDS011;43284;47.042;15.498;2024-01-25T09:22:16;0.63;;;0.28;;
57441;SDS011;43284;47.042;15.498;2024-01-25T09:24:44;0.30;;;0.20;;
57441;SDS011;43284;47.042;15.498;2024-01-25T09:27:11;0.20;;;0.20;;
57441;SDS011;43284;47.042;15.498;2024-01-25T09:29:37;0.82;;;0.30;;
57441;SDS011;43284;47.042;15.498;2024-01-25T09:32:04;0.22;;;0.22;;
57441;SDS011;43284;47.042;15.498;2024-01-25T09:34:37;0.75;;;0.30;;
57441;SDS011;43284;47.042;15.498;2024-01-25T09:37:04;0.63;;;0.20;;
57441;SDS011;43284;47.042;15.498;2024-01-25T09:39:33;3.58;;;0.40;;
57441;SDS011;43284;47.042;15.498;2024-01-25T09:42:00;2.20;;;0.52;;
57441;SDS011;43284;47.042;15.498;2024-01-25T09:44:28;3.22;;;0.30;;
57441;SDS011;43284;47.042;15.498;2024-01-25T09:46:53;0.80;;;0.28;;
57441;SDS011;43284;47.042;15.498;2024-01-25T09:49:19;1.33;;;0.45;;
57441;SDS011;43284;47.042;15.498;2024-01-25T09:51:45;2.13;;;0.30;;
57441;SDS011;43284;47.042;15.498;2024-01-25T09:54:13;4.43;;;0.65;;
57441;SDS011;43284;47.042;15.498;2024-01-25T09:56:41;3.30;;;0.43;;
57441;SDS011;43284;47.042;15.498;2024-01-25T09:59:08;3.80;;;0.68;;
57441;SDS011;43284;47.042;15.498;2024-01-25T10:01:34;2.97;;;0.60;;
57441;SDS011;43284;47.042;15.498;2024-01-25T10:03:59;2.10;;;0.73;;
57441;SDS011;43284;47.042;15.498;2024-01-25T10:06:28;2.50;;;0.50;;
57441;SDS011;43284;47.042;15.498;2024-01-25T10:08:54;2.50;;;0.38;;
57441;SDS011;43284;47.042;15.498;2024-01-25T10:11:19;1.85;;;0.57;;
57441;SDS011;43284;47.042;15.498;2024-01-25T10:13:46;0.60;;;0.35;;
57441;SDS011;43284;47.042;15.498;2024-01-25T10:16:15;2.17;;;0.60;;
57441;SDS011;43284;47.042;15.498;2024-01-25T10:18:44;1.73;;;0.52;;
57441;SDS011;43284;47.042;15.498;2024-01-25T10:21:12;2.30;;;0.45;;
57441;SDS011;43284;47.042;15.498;2024-01-25T10:23:39;3.15;;;0.57;;
57441;SDS011;43284;47.042;15.498;2024-01-25T10:26:05;1.75;;;0.57;;
57441;SDS011;43284;47.042;15.498;2024-01-25T10:28:33;5.00;;;0.60;;
57441;SDS011;43284;47.042;15.498;2024-01-25T10:31:00;1.63;;;0.32;;
57441;SDS011;43284;47.042;15.498;2024-01-25T10:33:29;3.08;;;0.47;;
57441;SDS011;43284;47.042;15.498;2024-01-25T10:35:58;3.15;;;0.50;;
57441;SDS011;43284;47.042;15.498;2024-01-25T10:38:31;0.63;;;0.57;;
57441;SDS011;43284;47.042;15.498;2024-01-25T10:41:02;6.85;;;0.60;;
57441;SDS011;43284;47.042;15.498;2024-01-25T10:43:29;5.35;;;0.82;;
57441;SDS011;43284;47.042;15.498;2024-01-25T10:45:57;4.22;;;0.63;;
57441;SDS011;43284;47.042;15.498;2024-01-25T10:48:26;2.63;;;0.50;;
57441;SDS011;43284;47.042;15.498;2024-01-25T10:50:56;3.97;;;0.70;;
57441;SDS011;43284;47.042;15.498;2024-01-25T10:53:25;4.15;;;0.68;;
57441;SDS011;43284;47.042;15.498;2024-01-25T10:55:54;3.25;;;1.02;;
57441;SDS011;43284;47.042;15.498;2024-01-25T10:58:19;2.65;;;0.50;;
57441;SDS011;43284;47.042;15.498;2024-01-25T11:00:57;1.65;;;0.75;;
57441;SDS011;43284;47.042;15.498;2024-01-25T11:03:26;1.95;;;0.70;;
57441;SDS011;43284;47.042;15.498;2024-01-25T11:05:54;5.93;;;0.60;;
57441;SDS011;43284;47.042;15.498;2024-01-25T11:08:21;4.35;;;0.80;;
57441;SDS011;43284;47.042;15.498;2024-01-25T11:10:48;1.90;;;0.65;;
57441;SDS011;43284;47.042;15.498;2024-01-25T11:13:28;5.53;;;0.70;;
57441;SDS011;43284;47.042;15.498;2024-01-25T11:15:54;3.70;;;0.68;;
57441;SDS011;43284;47.042;15.498;2024-01-25T11:18:20;1.20;;;0.63;;
57441;SDS011;43284;47.042;15.498;2024-01-25T11:20:50;2.05;;;0.50;;
57441;SDS011;43284;47.042;15.498;2024-01-25T11:23:16;2.03;;;0.80;;
57441;SDS011;43284;47.042;15.498;2024-01-25T11:25:44;7.47;;;0.57;;
57441;SDS011;43284;47.042;15.498;2024-01-25T11:28:13;4.30;;;0.90;;
57441;SDS011;43284;47.042;15.498;2024-01-25T11:30:41;7.00;;;0.90;;
57441;SDS011;43284;47.042;15.498;2024-01-25T11:33:07;4.43;;;0.80;;
57441;SDS011;43284;47.042;15.498;2024-01-25T11:35:34;0.77;;;0.45;;
57441;SDS011;43284;47.042;15.498;2024-01-25T11:37:59;3.80;;;0.68;;
57441;SDS011;43284;47.042;15.498;2024-01-25T11:40:26;3.25;;;0.55;;
57441;SDS011;43284;47.042;15.498;2024-01-25T11:42:53;0.88;;;0.40;;
57441;SDS011;43284;47.042;15.498;2024-01-25T11:45:22;1.95;;;0.70;;
57441;SDS011;43284;47.042;15.498;2024-01-25T11:47:47;2.88;;;0.60;;
57441;SDS011;43284;47.042;15.498;2024-01-25T11:50:13;3.10;;;0.63;;
57441;SDS011;43284;47.042;15.498;2024-01-25T11:52:39;5.30;;;0.70;;
57441;SDS011;43284;47.042;15.498;2024-01-25T11:55:05;4.05;;;0.60;;
57441;SDS011;43284;47.042;15.498;2024-01-25T11:57:36;4.07;;;0.77;;
57441;SDS011;43284;47.042;15.498;2024-01-25T12:00:04;2.15;;;0.85;;
57441;SDS011;43284;47.042;15.498;2024-01-25T12:02:31;2.75;;;0.75;;
57441;SDS011;43284;47.042;15.498;2024-01-25T12:04:57;1.83;;;0.77;;
57441;SDS011;43284;47.042;15.498;2024-01-25T12:07:23;2.15;;;0.45;;
57441;SDS011;43284;47.042;15.498;2024-01-25T12:10:02;3.00;;;0.55;;
57441;SDS011;43284;47.042;15.498;2024-01-25T12:12:29;4.88;;;0.63;;
57441;SDS011;43284;47.042;15.498;2024-01-25T12:14:58;1.88;;;0.50;;
57441;SDS011;43284;47.042;15.498;2024-01-25T12:17:27;2.72;;;0.77;;
57441;SDS011;43284;47.042;15.498;2024-01-25T12:19:54;6.18;;;0.70;;
57441;SDS011;43284;47.042;15.498;2024-01-25T12:22:23;3.85;;;0.73;;
57441;SDS011;43284;47.042;15.498;2024-01-25T12:24:58;6.50;;;0.68;;
57441;SDS011;43284;47.042;15.498;2024-01-25T12:27:25;3.47;;;1.13;;
57441;SDS011;43284;47.042;15.498;2024-01-25T12:29:51;4.90;;;1.15;;
57441;SDS011;43284;47.042;15.498;2024-01-25T12:32:21;1.20;;;0.57;;
57441;SDS011;43284;47.042;15.498;2024-01-25T12:34:57;4.18;;;1.23;;
57441;SDS011;43284;47.042;15.498;2024-01-25T12:37:25;4.95;;;0.43;;
57441;SDS011;43284;47.042;15.498;2024-01-25T12:39:51;4.75;;;1.00;;
57441;SDS011;43284;47.042;15.498;2024-01-25T12:42:18;4.05;;;1.42;;
57441;SDS011;43284;47.042;15.498;2024-01-25T12:44:44;1.65;;;0.47;;
57441;SDS011;43284;47.042;15.498;2024-01-25T12:47:13;1.63;;;0.70;;
57441;SDS011;43284;47.042;15.498;2024-01-25T12:49:42;3.72;;;1.00;;
57441;SDS011;43284;47.042;15.498;2024-01-25T12:52:09;3.42;;;0.68;;
57441;SDS011;43284;47.042;15.498;2024-01-25T12:54:35;5.97;;;0.80;;
57441;SDS011;43284;47.042;15.498;2024-01-25T12:57:01;3.15;;;0.75;;
57441;SDS011;43284;47.042;15.498;2024-01-25T12:59:27;2.67;;;0.65;;
57441;SDS011;43284;47.042;15.498;2024-01-25T13:01:55;2.38;;;0.60;;
57441;SDS011;43284;47.042;15.498;2024-01-25T13:04:21;5.22;;;0.60;;
57441;SDS011;43284;47.042;15.498;2024-01-25T13:06:47;2.70;;;0.88;;
57441;SDS011;43284;47.042;15.498;2024-01-25T13:09:13;4.78;;;0.73;;
57441;SDS011;43284;47.042;15.498;2024-01-25T13:11:40;3.67;;;0.70;;
57441;SDS011;43284;47.042;15.498;2024-01-25T13:14:06;2.95;;;0.73;;
57441;SDS011;43284;47.042;15.498;2024-01-25T13:16:32;3.47;;;0.82;;
57441;SDS011;43284;47.042;15.498;2024-01-25T13:18:58;2.90;;;1.73;;
57441;SDS011;43284;47.042;15.498;2024-01-25T13:21:26;3.47;;;0.60;;
57441;SDS011;43284;47.042;15.498;2024-01-25T13:23:52;3.40;;;0.80;;
57441;SDS011;43284;47.042;15.498;2024-01-25T13:26:17;4.57;;;0.73;;
57441;SDS011;43284;47.042;15.498;2024-01-25T13:28:43;3.90;;;0.70;;
57441;SDS011;43284;47.042;15.498;2024-01-25T13:31:08;4.20;;;0.80;;
57441;SDS011;43284;47.042;15.498;2024-01-25T13:33:34;1.77;;;0.68;;
57441;SDS011;43284;47.042;15.498;2024-01-25T13:36:02;2.08;;;0.60;;
57441;SDS011;43284;47.042;15.498;2024-01-25T13:38:33;6.10;;;0.82;;
57441;SDS011;43284;47.042;15.498;2024-01-25T13:41:02;4.28;;;0.65;;
57441;SDS011;43284;47.042;15.498;2024-01-25T13:43:27;3.55;;;0.50;;
57441;SDS011;43284;47.042;15.498;2024-01-25T13:45:53;1.60;;;0.60;;
57441;SDS011;43284;47.042;15.498;2024-01-25T13:48:19;2.97;;;0.70;;
57441;SDS011;43284;47.042;15.498;2024-01-25T13:50:45;2.00;;;0.52;;
57441;SDS011;43284;47.042;15.498;2024-01-25T13:53:10;4.30;;;0.88;;
57441;SDS011;43284;47.042;15.498;2024-01-25T13:55:36;7.57;;;0.90;;
57441;SDS011;43284;47.042;15.498;2024-01-25T13:58:01;3.55;;;0.73;;
57441;SDS011;43284;47.042;15.498;2024-01-25T14:00:27;2.83;;;0.88;;
57441;SDS011;43284;47.042;15.498;2024-01-25T14:02:53;5.40;;;0.68;;
57441;SDS011;43284;47.042;15.498;2024-01-25T14:05:19;2.92;;;1.00;;
57441;SDS011;43284;47.042;15.498;2024-01-25T14:07:44;4.40;;;0.60;;
57441;SDS011;43284;47.042;15.498;2024-01-25T14:10:10;4.45;;;0.77;;
57441;SDS011;43284;47.042;15.498;2024-01-25T14:12:35;2.92;;;0.77;;
57441;SDS011;43284;47.042;15.498;2024-01-25T14:15:01;5.53;;;0.80;;
57441;SDS011;43284;47.042;15.498;2024-01-25T14:17:27;1.58;;;0.60;;
57441;SDS011;43284;47.042;15.498;2024-01-25T14:19:53;2.08;;;0.75;;
57441;SDS011;43284;47.042;15.498;2024-01-25T14:22:19;3.28;;;0.90;;
57441;SDS011;43284;47.042;15.498;2024-01-25T14:24:44;4.72;;;1.08;;
57441;SDS011;43284;47.042;15.498;2024-01-25T14:27:11;5.18;;;0.85;;
57441;SDS011;43284;47.042;15.498;2024-01-25T14:29:37;4.78;;;0.90;;
57441;SDS011;43284;47.042;15.498;2024-01-25T14:32:02;5.97;;;0.90;;
57441;SDS011;43284;47.042;15.498;2024-01-25T14:34:28;2.15;;;0.80;;